sensor_id;sensor_type;location;lat;lon;timestamp;P1;durP1;ratioP1;P2;durP2;ratioP2
16516;SDS011;8371;52.272;9.746;2023-05-07T00:00:38;10.97;;;9.97;;
16516;SDS011;8371;52.272;9.746;2023-05-07T00:03:04;10.00;;;9.33;;
16516;SDS011;8371;52.272;9.746;2023-05-07T00:05:30;11.47;;;10.67;;
16516;SDS011;8371;52.272;9.746;2023-05-07T00:07:59;10.20;;;9.50;;
16516;SDS011;8371;52.272;9.746;2023-05-07T00:10:25;10.40;;;9.73;;
16516;SDS011;8371;52.272;9.746;2023-05-07T00:12:51;10.07;;;9.47;;
16516;SDS011;8371;52.272;9.746;2023-05-07T00:15:17;10.47;;;9.90;;
16516;SDS011;8371;52.272;9.746;2023-05-07T00:17:42;9.93;;;9.30;;
16516;SDS011;8371;52.272;9.746;2023-05-07T00:20:08;10.03;;;9.37;;
16516;SDS011;8371;52.272;9.746;2023-05-07T00:22:34;9.53;;;9.03;;
16516;SDS011;8371;52.272;9.746;2023-05-07T00:25:00;11.63;;;10.57;;
16516;SDS011;8371;52.272;9.746;2023-05-07T00:27:25;12.83;;;11.70;;
16516;SDS011;8371;52.272;9.746;2023-05-07T00:29:51;11.50;;;10.57;;
16516;SDS011;8371;52.272;9.746;2023-05-07T00:32:17;11.97;;;11.23;;
16516;SDS011;8371;52.272;9.746;2023-05-07T00:34:43;11.73;;;10.83;;
16516;SDS011;8371;52.272;9.746;2023-05-07T00:37:09;9.83;;;9.23;;
16516;SDS011;8371;52.272;9.746;2023-05-07T00:39:35;12.07;;;10.97;;
16516;SDS011;8371;52.272;9.746;2023-05-07T00:42:01;12.97;;;11.87;;
16516;SDS011;8371;52.272;9.746;2023-05-07T00:44:28;12.70;;;11.70;;
16516;SDS011;8371;52.272;9.746;2023-05-07T00:46:55;12.27;;;11.33;;
16516;SDS011;8371;52.272;9.746;2023-05-07T00:49:23;12.97;;;11.80;;
16516;SDS011;8371;52.272;9.746;2023-05-07T00:51:55;13.23;;;12.07;;
16516;SDS011;8371;52.272;9.746;2023-05-07T00:54:21;12.70;;;11.63;;
16516;SDS011;8371;52.272;9.746;2023-05-07T00:56:47;13.97;;;12.50;;
16516;SDS011;8371;52.272;9.746;2023-05-07T00:59:13;14.07;;;12.60;;
16516;SDS011;8371;52.272;9.746;2023-05-07T01:01:38;13.53;;;12.30;;
16516;SDS011;8371;52.272;9.746;2023-05-07T01:04:04;14.67;;;13.20;;
16516;SDS011;8371;52.272;9.746;2023-05-07T01:06:30;12.97;;;11.97;;
16516;SDS011;8371;52.272;9.746;2023-05-07T01:08:58;13.77;;;12.57;;
16516;SDS011;8371;52.272;9.746;2023-05-07T01:11:25;13.17;;;11.63;;
16516;SDS011;8371;52.272;9.746;2023-05-07T01:13:51;14.10;;;12.60;;
16516;SDS011;8371;52.272;9.746;2023-05-07T01:16:17;11.70;;;10.80;;
16516;SDS011;8371;52.272;9.746;2023-05-07T01:18:43;13.73;;;12.53;;
16516;SDS011;8371;52.272;9.746;2023-05-07T01:21:10;14.33;;;12.93;;
16516;SDS011;8371;52.272;9.746;2023-05-07T01:23:37;14.17;;;12.77;;
16516;SDS011;8371;52.272;9.746;2023-05-07T01:26:05;14.57;;;13.17;;
16516;SDS011;8371;52.272;9.746;2023-05-07T01:28:30;12.20;;;10.93;;
16516;SDS011;8371;52.272;9.746;2023-05-07T01:31:00;11.53;;;10.63;;
16516;SDS011;8371;52.272;9.746;2023-05-07T01:33:26;12.03;;;10.80;;
16516;SDS011;8371;52.272;9.746;2023-05-07T01:35:54;12.63;;;11.67;;
16516;SDS011;8371;52.272;9.746;2023-05-07T01:38:21;13.60;;;12.40;;
16516;SDS011;8371;52.272;9.746;2023-05-07T01:40:47;12.80;;;11.50;;
16516;SDS011;8371;52.272;9.746;2023-05-07T01:43:13;11.20;;;10.30;;
16516;SDS011;8371;52.272;9.746;2023-05-07T01:45:39;10.93;;;10.10;;
16516;SDS011;8371;52.272;9.746;2023-05-07T01:48:06;11.70;;;10.17;;
16516;SDS011;8371;52.272;9.746;2023-05-07T01:50:33;10.83;;;10.03;;
16516;SDS011;8371;52.272;9.746;2023-05-07T01:52:59;11.07;;;10.07;;
16516;SDS011;8371;52.272;9.746;2023-05-07T01:55:26;10.20;;;9.47;;
16516;SDS011;8371;52.272;9.746;2023-05-07T01:57:52;9.40;;;8.70;;
16516;SDS011;8371;52.272;9.746;2023-05-07T02:00:18;9.97;;;9.17;;
16516;SDS011;8371;52.272;9.746;2023-05-07T02:02:44;9.70;;;8.90;;
16516;SDS011;8371;52.272;9.746;2023-05-07T02:05:10;9.60;;;8.97;;
16516;SDS011;8371;52.272;9.746;2023-05-07T02:07:36;8.23;;;7.73;;
16516;SDS011;8371;52.272;9.746;2023-05-07T02:10:02;7.60;;;7.20;;
16516;SDS011;8371;52.272;9.746;2023-05-07T02:12:28;9.40;;;8.80;;
16516;SDS011;8371;52.272;9.746;2023-05-07T02:14:54;7.87;;;7.37;;
16516;SDS011;8371;52.272;9.746;2023-05-07T02:17:19;7.77;;;7.27;;
16516;SDS011;8371;52.272;9.746;2023-05-07T02:19:45;7.97;;;7.40;;
16516;SDS011;8371;52.272;9.746;2023-05-07T02:22:11;7.43;;;6.90;;
16516;SDS011;8371;52.272;9.746;2023-05-07T02:24:36;6.60;;;6.30;;
16516;SDS011;8371;52.272;9.746;2023-05-07T02:27:02;6.90;;;6.60;;
16516;SDS011;8371;52.272;9.746;2023-05-07T02:29:28;5.77;;;5.53;;
16516;SDS011;8371;52.272;9.746;2023-05-07T02:31:54;5.63;;;5.43;;
16516;SDS011;8371;52.272;9.746;2023-05-07T02:34:20;6.40;;;6.00;;
16516;SDS011;8371;52.272;9.746;2023-05-07T02:36:46;6.40;;;6.10;;
16516;SDS011;8371;52.272;9.746;2023-05-07T02:39:12;5.00;;;4.80;;
16516;SDS011;8371;52.272;9.746;2023-05-07T02:41:38;6.30;;;6.00;;
16516;SDS011;8371;52.272;9.746;2023-05-07T02:44:04;5.77;;;5.47;;
16516;SDS011;8371;52.272;9.746;2023-05-07T02:46:30;7.07;;;6.67;;
16516;SDS011;8371;52.272;9.746;2023-05-07T02:48:55;5.83;;;5.43;;
16516;SDS011;8371;52.272;9.746;2023-05-07T02:51:22;6.00;;;5.70;;
16516;SDS011;8371;52.272;9.746;2023-05-07T02:53:48;6.03;;;5.73;;
16516;SDS011;8371;52.272;9.746;2023-05-07T02:56:13;8.67;;;6.33;;
16516;SDS011;8371;52.272;9.746;2023-05-07T02:58:39;6.60;;;6.23;;
16516;SDS011;8371;52.272;9.746;2023-05-07T03:01:05;6.57;;;6.27;;
16516;SDS011;8371;52.272;9.746;2023-05-07T03:03:31;6.33;;;6.03;;
16516;SDS011;8371;52.272;9.746;2023-05-07T03:05:57;7.23;;;6.93;;
16516;SDS011;8371;52.272;9.746;2023-05-07T03:08:23;7.73;;;7.23;;
16516;SDS011;8371;52.272;9.746;2023-05-07T03:10:49;7.47;;;7.07;;
16516;SDS011;8371;52.272;9.746;2023-05-07T03:13:15;6.87;;;6.57;;
16516;SDS011;8371;52.272;9.746;2023-05-07T03:15:41;7.50;;;7.00;;
16516;SDS011;8371;52.272;9.746;2023-05-07T03:18:06;7.57;;;6.97;;
16516;SDS011;8371;52.272;9.746;2023-05-07T03:20:32;8.57;;;8.07;;
16516;SDS011;8371;52.272;9.746;2023-05-07T03:22:58;8.17;;;7.67;;
16516;SDS011;8371;52.272;9.746;2023-05-07T03:25:24;9.80;;;9.20;;
16516;SDS011;8371;52.272;9.746;2023-05-07T03:27:49;9.20;;;8.60;;
16516;SDS011;8371;52.272;9.746;2023-05-07T03:30:15;8.77;;;8.17;;
16516;SDS011;8371;52.272;9.746;2023-05-07T03:32:41;9.17;;;8.57;;
16516;SDS011;8371;52.272;9.746;2023-05-07T03:35:06;8.20;;;7.80;;
16516;SDS011;8371;52.272;9.746;2023-05-07T03:37:32;8.70;;;8.20;;
16516;SDS011;8371;52.272;9.746;2023-05-07T03:39:58;8.77;;;8.17;;
16516;SDS011;8371;52.272;9.746;2023-05-07T03:42:25;8.50;;;8.00;;
16516;SDS011;8371;52.272;9.746;2023-05-07T03:44:51;9.37;;;8.80;;
16516;SDS011;8371;52.272;9.746;2023-05-07T03:47:16;9.83;;;9.23;;
16516;SDS011;8371;52.272;9.746;2023-05-07T03:49:42;8.80;;;8.20;;
16516;SDS011;8371;52.272;9.746;2023-05-07T03:52:08;8.37;;;7.90;;
16516;SDS011;8371;52.272;9.746;2023-05-07T03:54:33;8.67;;;8.17;;
16516;SDS011;8371;52.272;9.746;2023-05-07T03:56:59;8.83;;;8.13;;
16516;SDS011;8371;52.272;9.746;2023-05-07T03:59:24;8.07;;;7.67;;
16516;SDS011;8371;52.272;9.746;2023-05-07T04:01:50;9.07;;;8.47;;
16516;SDS011;8371;52.272;9.746;2023-05-07T04:04:16;7.40;;;7.00;;
16516;SDS011;8371;52.272;9.746;2023-05-07T04:06:42;7.47;;;7.07;;
16516;SDS011;8371;52.272;9.746;2023-05-07T04:09:08;7.87;;;7.47;;
16516;SDS011;8371;52.272;9.746;2023-05-07T04:11:34;6.93;;;6.57;;
16516;SDS011;8371;52.272;9.746;2023-05-07T04:14:01;7.03;;;6.70;;
16516;SDS011;8371;52.272;9.746;2023-05-07T04:16:26;6.13;;;5.83;;
16516;SDS011;8371;52.272;9.746;2023-05-07T04:18:52;6.80;;;6.50;;
16516;SDS011;8371;52.272;9.746;2023-05-07T04:21:18;6.77;;;6.47;;
16516;SDS011;8371;52.272;9.746;2023-05-07T04:23:45;7.60;;;7.20;;
16516;SDS011;8371;52.272;9.746;2023-05-07T04:26:15;8.10;;;7.67;;
16516;SDS011;8371;52.272;9.746;2023-05-07T04:28:41;9.27;;;8.70;;
16516;SDS011;8371;52.272;9.746;2023-05-07T04:31:07;9.07;;;8.47;;
16516;SDS011;8371;52.272;9.746;2023-05-07T04:33:33;9.67;;;8.87;;
16516;SDS011;8371;52.272;9.746;2023-05-07T04:36:03;8.73;;;8.30;;
16516;SDS011;8371;52.272;9.746;2023-05-07T04:38:29;8.40;;;7.90;;
16516;SDS011;8371;52.272;9.746;2023-05-07T04:40:56;7.87;;;7.37;;
16516;SDS011;8371;52.272;9.746;2023-05-07T04:43:23;7.93;;;7.47;;
16516;SDS011;8371;52.272;9.746;2023-05-07T04:45:51;8.30;;;7.90;;
16516;SDS011;8371;52.272;9.746;2023-05-07T04:48:17;9.43;;;8.93;;
16516;SDS011;8371;52.272;9.746;2023-05-07T04:50:47;9.20;;;8.53;;
16516;SDS011;8371;52.272;9.746;2023-05-07T04:53:12;8.13;;;7.63;;
16516;SDS011;8371;52.272;9.746;2023-05-07T04:55:38;9.53;;;8.93;;
16516;SDS011;8371;52.272;9.746;2023-05-07T04:58:04;7.87;;;7.40;;
16516;SDS011;8371;52.272;9.746;2023-05-07T05:00:30;8.57;;;8.07;;
16516;SDS011;8371;52.272;9.746;2023-05-07T05:02:56;7.90;;;7.47;;
16516;SDS011;8371;52.272;9.746;2023-05-07T05:05:21;8.93;;;8.33;;
16516;SDS011;8371;52.272;9.746;2023-05-07T05:07:47;8.70;;;8.20;;
16516;SDS011;8371;52.272;9.746;2023-05-07T05:10:13;8.43;;;7.93;;
16516;SDS011;8371;52.272;9.746;2023-05-07T05:12:39;9.17;;;8.63;;
16516;SDS011;8371;52.272;9.746;2023-05-07T05:15:05;8.80;;;8.40;;
16516;SDS011;8371;52.272;9.746;2023-05-07T05:17:32;8.67;;;8.13;;
16516;SDS011;8371;52.272;9.746;2023-05-07T05:19:59;8.50;;;8.00;;
16516;SDS011;8371;52.272;9.746;2023-05-07T05:22:25;9.27;;;8.47;;
16516;SDS011;8371;52.272;9.746;2023-05-07T05:24:50;8.27;;;7.67;;
16516;SDS011;8371;52.272;9.746;2023-05-07T05:27:16;6.70;;;6.33;;
16516;SDS011;8371;52.272;9.746;2023-05-07T05:29:42;6.50;;;6.20;;
16516;SDS011;8371;52.272;9.746;2023-05-07T05:32:07;5.70;;;5.40;;
16516;SDS011;8371;52.272;9.746;2023-05-07T05:34:33;6.37;;;6.03;;
16516;SDS011;8371;52.272;9.746;2023-05-07T05:36:59;5.70;;;5.40;;
16516;SDS011;8371;52.272;9.746;2023-05-07T05:39:25;5.73;;;5.50;;
16516;SDS011;8371;52.272;9.746;2023-05-07T05:41:50;6.20;;;5.90;;
16516;SDS011;8371;52.272;9.746;2023-05-07T05:44:16;6.50;;;6.20;;
16516;SDS011;8371;52.272;9.746;2023-05-07T05:46:42;7.10;;;6.60;;
16516;SDS011;8371;52.272;9.746;2023-05-07T05:49:08;6.30;;;6.00;;
16516;SDS011;8371;52.272;9.746;2023-05-07T05:51:33;6.33;;;5.87;;
16516;SDS011;8371;52.272;9.746;2023-05-07T05:53:59;5.90;;;5.60;;
16516;SDS011;8371;52.272;9.746;2023-05-07T05:56:25;6.37;;;5.97;;
16516;SDS011;8371;52.272;9.746;2023-05-07T05:58:51;5.47;;;5.17;;
16516;SDS011;8371;52.272;9.746;2023-05-07T06:01:17;5.17;;;4.97;;
16516;SDS011;8371;52.272;9.746;2023-05-07T06:03:44;5.83;;;5.53;;
16516;SDS011;8371;52.272;9.746;2023-05-07T06:06:10;6.33;;;6.03;;
16516;SDS011;8371;52.272;9.746;2023-05-07T06:08:35;5.47;;;5.27;;
16516;SDS011;8371;52.272;9.746;2023-05-07T06:11:01;5.63;;;5.43;;
16516;SDS011;8371;52.272;9.746;2023-05-07T06:13:28;5.67;;;5.30;;
16516;SDS011;8371;52.272;9.746;2023-05-07T06:15:53;5.37;;;5.13;;
16516;SDS011;8371;52.272;9.746;2023-05-07T06:18:19;5.03;;;4.83;;
16516;SDS011;8371;52.272;9.746;2023-05-07T06:20:45;5.00;;;4.80;;
16516;SDS011;8371;52.272;9.746;2023-05-07T06:23:11;5.47;;;5.27;;
16516;SDS011;8371;52.272;9.746;2023-05-07T06:25:36;5.50;;;5.30;;
16516;SDS011;8371;52.272;9.746;2023-05-07T06:28:02;5.30;;;5.10;;
16516;SDS011;8371;52.272;9.746;2023-05-07T06:30:28;5.67;;;5.37;;
16516;SDS011;8371;52.272;9.746;2023-05-07T06:32:54;5.83;;;5.53;;
16516;SDS011;8371;52.272;9.746;2023-05-07T06:35:21;5.20;;;4.93;;
16516;SDS011;8371;52.272;9.746;2023-05-07T06:37:47;5.07;;;4.87;;
16516;SDS011;8371;52.272;9.746;2023-05-07T06:40:13;4.70;;;4.50;;
16516;SDS011;8371;52.272;9.746;2023-05-07T06:42:39;4.90;;;4.70;;
16516;SDS011;8371;52.272;9.746;2023-05-07T06:45:05;5.43;;;5.10;;
16516;SDS011;8371;52.272;9.746;2023-05-07T06:47:33;5.90;;;5.60;;
16516;SDS011;8371;52.272;9.746;2023-05-07T06:49:59;5.40;;;5.20;;
16516;SDS011;8371;52.272;9.746;2023-05-07T06:52:25;4.63;;;4.33;;
16516;SDS011;8371;52.272;9.746;2023-05-07T06:54:51;4.77;;;4.57;;
16516;SDS011;8371;52.272;9.746;2023-05-07T06:57:17;4.47;;;4.27;;
16516;SDS011;8371;52.272;9.746;2023-05-07T06:59:42;4.67;;;4.47;;
16516;SDS011;8371;52.272;9.746;2023-05-07T07:02:08;3.73;;;3.53;;
16516;SDS011;8371;52.272;9.746;2023-05-07T07:04:34;4.70;;;4.50;;
16516;SDS011;8371;52.272;9.746;2023-05-07T07:07:00;4.10;;;4.00;;
16516;SDS011;8371;52.272;9.746;2023-05-07T07:09:25;5.00;;;4.30;;
16516;SDS011;8371;52.272;9.746;2023-05-07T07:11:51;4.60;;;4.40;;
16516;SDS011;8371;52.272;9.746;2023-05-07T07:14:19;4.50;;;4.40;;
16516;SDS011;8371;52.272;9.746;2023-05-07T07:16:45;3.67;;;3.57;;
16516;SDS011;8371;52.272;9.746;2023-05-07T07:19:12;4.97;;;4.77;;
16516;SDS011;8371;52.272;9.746;2023-05-07T07:21:37;4.97;;;4.77;;
16516;SDS011;8371;52.272;9.746;2023-05-07T07:24:03;5.03;;;4.83;;
16516;SDS011;8371;52.272;9.746;2023-05-07T07:26:30;5.00;;;4.80;;
16516;SDS011;8371;52.272;9.746;2023-05-07T07:28:56;5.40;;;5.10;;
16516;SDS011;8371;52.272;9.746;2023-05-07T07:31:22;5.37;;;5.17;;
16516;SDS011;8371;52.272;9.746;2023-05-07T07:33:48;5.03;;;4.83;;
16516;SDS011;8371;52.272;9.746;2023-05-07T07:36:15;5.03;;;4.83;;
16516;SDS011;8371;52.272;9.746;2023-05-07T07:38:43;4.73;;;4.53;;
16516;SDS011;8371;52.272;9.746;2023-05-07T07:41:09;5.77;;;5.57;;
16516;SDS011;8371;52.272;9.746;2023-05-07T07:43:35;6.10;;;5.90;;
16516;SDS011;8371;52.272;9.746;2023-05-07T07:46:01;6.07;;;5.87;;
16516;SDS011;8371;52.272;9.746;2023-05-07T07:48:27;5.70;;;5.50;;
16516;SDS011;8371;52.272;9.746;2023-05-07T07:50:52;5.57;;;5.37;;
16516;SDS011;8371;52.272;9.746;2023-05-07T07:53:18;5.40;;;5.20;;
16516;SDS011;8371;52.272;9.746;2023-05-07T07:55:44;5.07;;;4.87;;
16516;SDS011;8371;52.272;9.746;2023-05-07T07:58:10;4.83;;;4.63;;
16516;SDS011;8371;52.272;9.746;2023-05-07T08:00:36;5.33;;;5.13;;
16516;SDS011;8371;52.272;9.746;2023-05-07T08:03:02;5.70;;;5.50;;
16516;SDS011;8371;52.272;9.746;2023-05-07T08:05:28;6.03;;;5.73;;
16516;SDS011;8371;52.272;9.746;2023-05-07T08:07:54;6.13;;;5.83;;
16516;SDS011;8371;52.272;9.746;2023-05-07T08:10:21;6.33;;;6.13;;
16516;SDS011;8371;52.272;9.746;2023-05-07T08:12:47;6.23;;;6.03;;
16516;SDS011;8371;52.272;9.746;2023-05-07T08:15:14;6.23;;;6.03;;
16516;SDS011;8371;52.272;9.746;2023-05-07T08:17:40;5.83;;;5.63;;
16516;SDS011;8371;52.272;9.746;2023-05-07T08:20:06;5.90;;;5.70;;
16516;SDS011;8371;52.272;9.746;2023-05-07T08:22:36;5.80;;;5.60;;
16516;SDS011;8371;52.272;9.746;2023-05-07T08:25:05;6.10;;;5.90;;
16516;SDS011;8371;52.272;9.746;2023-05-07T08:27:31;6.60;;;6.40;;
16516;SDS011;8371;52.272;9.746;2023-05-07T08:29:57;6.60;;;6.40;;
16516;SDS011;8371;52.272;9.746;2023-05-07T08:32:23;6.03;;;5.83;;
16516;SDS011;8371;52.272;9.746;2023-05-07T08:34:49;6.13;;;5.93;;
16516;SDS011;8371;52.272;9.746;2023-05-07T08:37:14;5.70;;;5.50;;
16516;SDS011;8371;52.272;9.746;2023-05-07T08:39:40;7.13;;;6.83;;
16516;SDS011;8371;52.272;9.746;2023-05-07T08:42:06;6.93;;;6.63;;
16516;SDS011;8371;52.272;9.746;2023-05-07T08:44:34;6.10;;;5.90;;
16516;SDS011;8371;52.272;9.746;2023-05-07T08:47:02;6.07;;;5.87;;
16516;SDS011;8371;52.272;9.746;2023-05-07T08:49:30;5.80;;;5.60;;
16516;SDS011;8371;52.272;9.746;2023-05-07T08:51:56;6.27;;;5.90;;
16516;SDS011;8371;52.272;9.746;2023-05-07T08:54:22;7.17;;;6.53;;
16516;SDS011;8371;52.272;9.746;2023-05-07T08:56:49;6.77;;;6.47;;
16516;SDS011;8371;52.272;9.746;2023-05-07T08:59:15;6.93;;;6.67;;
16516;SDS011;8371;52.272;9.746;2023-05-07T09:01:41;6.83;;;6.53;;
16516;SDS011;8371;52.272;9.746;2023-05-07T09:04:07;6.53;;;6.33;;
16516;SDS011;8371;52.272;9.746;2023-05-07T09:06:33;6.60;;;6.20;;
16516;SDS011;8371;52.272;9.746;2023-05-07T09:09:00;6.27;;;5.90;;
16516;SDS011;8371;52.272;9.746;2023-05-07T09:11:26;6.30;;;6.10;;
16516;SDS011;8371;52.272;9.746;2023-05-07T09:13:58;5.43;;;5.23;;
16516;SDS011;8371;52.272;9.746;2023-05-07T09:16:28;5.67;;;5.47;;
16516;SDS011;8371;52.272;9.746;2023-05-07T09:18:57;4.90;;;4.70;;
16516;SDS011;8371;52.272;9.746;2023-05-07T09:21:24;4.63;;;4.43;;
16516;SDS011;8371;52.272;9.746;2023-05-07T09:23:50;5.80;;;5.40;;
16516;SDS011;8371;52.272;9.746;2023-05-07T09:26:17;5.50;;;5.30;;
16516;SDS011;8371;52.272;9.746;2023-05-07T09:28:45;5.67;;;5.47;;
16516;SDS011;8371;52.272;9.746;2023-05-07T09:31:11;5.77;;;5.57;;
16516;SDS011;8371;52.272;9.746;2023-05-07T09:33:38;6.30;;;6.10;;
16516;SDS011;8371;52.272;9.746;2023-05-07T09:36:04;5.40;;;5.10;;
16516;SDS011;8371;52.272;9.746;2023-05-07T09:38:31;5.00;;;4.80;;
16516;SDS011;8371;52.272;9.746;2023-05-07T09:41:08;4.53;;;4.33;;
16516;SDS011;8371;52.272;9.746;2023-05-07T09:43:36;5.87;;;5.63;;
16516;SDS011;8371;52.272;9.746;2023-05-07T09:46:06;6.17;;;5.97;;
16516;SDS011;8371;52.272;9.746;2023-05-07T09:48:37;4.80;;;4.60;;
16516;SDS011;8371;52.272;9.746;2023-05-07T09:51:04;5.33;;;5.13;;
16516;SDS011;8371;52.272;9.746;2023-05-07T09:53:33;6.17;;;5.97;;
16516;SDS011;8371;52.272;9.746;2023-05-07T09:55:59;5.90;;;5.70;;
16516;SDS011;8371;52.272;9.746;2023-05-07T09:58:26;6.30;;;6.10;;
16516;SDS011;8371;52.272;9.746;2023-05-07T10:00:52;5.50;;;5.30;;
16516;SDS011;8371;52.272;9.746;2023-05-07T10:03:19;5.73;;;5.40;;
16516;SDS011;8371;52.272;9.746;2023-05-07T10:05:46;5.57;;;5.37;;
16516;SDS011;8371;52.272;9.746;2023-05-07T10:08:13;5.73;;;5.53;;
16516;SDS011;8371;52.272;9.746;2023-05-07T10:10:40;5.73;;;5.47;;
16516;SDS011;8371;52.272;9.746;2023-05-07T10:13:06;5.17;;;4.97;;
16516;SDS011;8371;52.272;9.746;2023-05-07T10:15:34;6.13;;;5.83;;
16516;SDS011;8371;52.272;9.746;2023-05-07T10:18:00;5.60;;;5.40;;
16516;SDS011;8371;52.272;9.746;2023-05-07T10:20:27;5.03;;;4.83;;
16516;SDS011;8371;52.272;9.746;2023-05-07T10:22:53;6.73;;;6.30;;
16516;SDS011;8371;52.272;9.746;2023-05-07T10:25:23;5.70;;;5.50;;
16516;SDS011;8371;52.272;9.746;2023-05-07T10:27:53;7.10;;;6.80;;
16516;SDS011;8371;52.272;9.746;2023-05-07T10:30:40;6.20;;;6.00;;
16516;SDS011;8371;52.272;9.746;2023-05-07T10:33:27;6.57;;;6.27;;
16516;SDS011;8371;52.272;9.746;2023-05-07T10:35:58;6.83;;;6.60;;
16516;SDS011;8371;52.272;9.746;2023-05-07T10:38:27;6.70;;;6.50;;
16516;SDS011;8371;52.272;9.746;2023-05-07T10:40:53;7.20;;;6.70;;
16516;SDS011;8371;52.272;9.746;2023-05-07T10:43:19;6.37;;;5.97;;
16516;SDS011;8371;52.272;9.746;2023-05-07T10:51:31;5.67;;;5.40;;
16516;SDS011;8371;52.272;9.746;2023-05-07T10:56:41;6.17;;;5.87;;
16516;SDS011;8371;52.272;9.746;2023-05-07T11:01:56;5.30;;;5.10;;
16516;SDS011;8371;52.272;9.746;2023-05-07T11:04:23;5.63;;;5.43;;
16516;SDS011;8371;52.272;9.746;2023-05-07T11:15:10;5.30;;;5.10;;
16516;SDS011;8371;52.272;9.746;2023-05-07T11:17:56;4.60;;;4.50;;
16516;SDS011;8371;52.272;9.746;2023-05-07T11:26:04;5.57;;;5.37;;
16516;SDS011;8371;52.272;9.746;2023-05-07T11:28:40;4.93;;;4.73;;
16516;SDS011;8371;52.272;9.746;2023-05-07T11:31:07;5.27;;;5.00;;
16516;SDS011;8371;52.272;9.746;2023-05-07T11:33:34;4.47;;;4.37;;
16516;SDS011;8371;52.272;9.746;2023-05-07T11:36:01;4.47;;;4.33;;
16516;SDS011;8371;52.272;9.746;2023-05-07T11:38:28;5.10;;;4.90;;
16516;SDS011;8371;52.272;9.746;2023-05-07T11:40:56;5.30;;;5.10;;
16516;SDS011;8371;52.272;9.746;2023-05-07T11:43:25;5.07;;;4.67;;
16516;SDS011;8371;52.272;9.746;2023-05-07T11:45:52;5.67;;;5.37;;
16516;SDS011;8371;52.272;9.746;2023-05-07T11:48:18;5.47;;;5.13;;
16516;SDS011;8371;52.272;9.746;2023-05-07T11:51:02;5.37;;;5.17;;
16516;SDS011;8371;52.272;9.746;2023-05-07T11:53:28;6.00;;;5.70;;
16516;SDS011;8371;52.272;9.746;2023-05-07T11:55:55;4.80;;;4.60;;
16516;SDS011;8371;52.272;9.746;2023-05-07T11:58:22;4.60;;;4.50;;
16516;SDS011;8371;52.272;9.746;2023-05-07T12:00:51;4.37;;;4.27;;
16516;SDS011;8371;52.272;9.746;2023-05-07T12:03:18;4.80;;;4.60;;
16516;SDS011;8371;52.272;9.746;2023-05-07T12:05:44;3.53;;;3.43;;
16516;SDS011;8371;52.272;9.746;2023-05-07T12:08:14;4.53;;;4.33;;
16516;SDS011;8371;52.272;9.746;2023-05-07T12:10:41;4.50;;;4.30;;
16516;SDS011;8371;52.272;9.746;2023-05-07T12:13:17;6.30;;;4.53;;
16516;SDS011;8371;52.272;9.746;2023-05-07T12:15:44;4.53;;;4.37;;
16516;SDS011;8371;52.272;9.746;2023-05-07T12:18:10;4.43;;;4.23;;
16516;SDS011;8371;52.272;9.746;2023-05-07T12:20:37;3.80;;;3.70;;
16516;SDS011;8371;52.272;9.746;2023-05-07T12:23:04;3.93;;;3.83;;
16516;SDS011;8371;52.272;9.746;2023-05-07T12:25:30;3.93;;;3.83;;
16516;SDS011;8371;52.272;9.746;2023-05-07T12:27:57;4.63;;;4.30;;
16516;SDS011;8371;52.272;9.746;2023-05-07T12:30:25;4.40;;;4.30;;
16516;SDS011;8371;52.272;9.746;2023-05-07T12:32:53;3.63;;;3.47;;
16516;SDS011;8371;52.272;9.746;2023-05-07T12:35:27;3.40;;;3.30;;
16516;SDS011;8371;52.272;9.746;2023-05-07T12:37:55;3.60;;;3.40;;
16516;SDS011;8371;52.272;9.746;2023-05-07T12:40:21;3.50;;;3.40;;
16516;SDS011;8371;52.272;9.746;2023-05-07T12:42:47;3.07;;;2.97;;
16516;SDS011;8371;52.272;9.746;2023-05-07T12:45:17;3.80;;;3.70;;
16516;SDS011;8371;52.272;9.746;2023-05-07T12:47:45;3.37;;;3.27;;
16516;SDS011;8371;52.272;9.746;2023-05-07T12:50:12;4.10;;;3.20;;
16516;SDS011;8371;52.272;9.746;2023-05-07T12:52:39;3.20;;;3.10;;
16516;SDS011;8371;52.272;9.746;2023-05-07T12:55:11;3.70;;;3.50;;
16516;SDS011;8371;52.272;9.746;2023-05-07T12:57:39;3.33;;;3.23;;
16516;SDS011;8371;52.272;9.746;2023-05-07T13:00:14;3.57;;;3.47;;
16516;SDS011;8371;52.272;9.746;2023-05-07T13:02:41;3.63;;;3.53;;
16516;SDS011;8371;52.272;9.746;2023-05-07T13:05:09;6.93;;;4.60;;
16516;SDS011;8371;52.272;9.746;2023-05-07T13:07:35;4.20;;;4.00;;
16516;SDS011;8371;52.272;9.746;2023-05-07T13:10:02;3.60;;;3.50;;
16516;SDS011;8371;52.272;9.746;2023-05-07T13:12:28;4.20;;;4.10;;
16516;SDS011;8371;52.272;9.746;2023-05-07T13:14:54;4.93;;;4.73;;
16516;SDS011;8371;52.272;9.746;2023-05-07T13:17:20;4.67;;;4.50;;
16516;SDS011;8371;52.272;9.746;2023-05-07T13:19:46;5.63;;;5.43;;
16516;SDS011;8371;52.272;9.746;2023-05-07T13:22:12;5.07;;;4.80;;
16516;SDS011;8371;52.272;9.746;2023-05-07T13:24:37;5.17;;;4.97;;
16516;SDS011;8371;52.272;9.746;2023-05-07T13:27:03;5.37;;;5.00;;
16516;SDS011;8371;52.272;9.746;2023-05-07T13:29:29;4.70;;;4.50;;
16516;SDS011;8371;52.272;9.746;2023-05-07T13:31:56;5.70;;;5.50;;
16516;SDS011;8371;52.272;9.746;2023-05-07T13:34:22;4.90;;;4.70;;
16516;SDS011;8371;52.272;9.746;2023-05-07T13:36:48;4.70;;;4.57;;
16516;SDS011;8371;52.272;9.746;2023-05-07T13:39:14;4.97;;;4.77;;
16516;SDS011;8371;52.272;9.746;2023-05-07T13:41:40;4.50;;;4.40;;
16516;SDS011;8371;52.272;9.746;2023-05-07T13:44:06;4.00;;;3.90;;
16516;SDS011;8371;52.272;9.746;2023-05-07T13:46:32;4.57;;;4.47;;
16516;SDS011;8371;52.272;9.746;2023-05-07T13:48:58;5.77;;;5.50;;
16516;SDS011;8371;52.272;9.746;2023-05-07T13:51:24;4.90;;;4.70;;
16516;SDS011;8371;52.272;9.746;2023-05-07T13:53:49;5.77;;;5.50;;
16516;SDS011;8371;52.272;9.746;2023-05-07T13:56:15;4.83;;;4.73;;
16516;SDS011;8371;52.272;9.746;2023-05-07T13:58:41;5.03;;;4.83;;
16516;SDS011;8371;52.272;9.746;2023-05-07T14:01:07;4.53;;;4.33;;
16516;SDS011;8371;52.272;9.746;2023-05-07T14:03:33;4.30;;;4.20;;
16516;SDS011;8371;52.272;9.746;2023-05-07T14:05:59;5.00;;;4.70;;
16516;SDS011;8371;52.272;9.746;2023-05-07T14:08:27;4.10;;;3.90;;
16516;SDS011;8371;52.272;9.746;2023-05-07T14:10:53;5.37;;;4.30;;
16516;SDS011;8371;52.272;9.746;2023-05-07T14:13:19;4.10;;;3.93;;
16516;SDS011;8371;52.272;9.746;2023-05-07T14:15:45;5.33;;;5.13;;
16516;SDS011;8371;52.272;9.746;2023-05-07T14:18:12;4.43;;;4.23;;
16516;SDS011;8371;52.272;9.746;2023-05-07T14:20:38;5.37;;;5.13;;
16516;SDS011;8371;52.272;9.746;2023-05-07T14:23:09;4.43;;;4.00;;
16516;SDS011;8371;52.272;9.746;2023-05-07T14:25:35;4.17;;;4.07;;
16516;SDS011;8371;52.272;9.746;2023-05-07T14:28:00;4.20;;;4.10;;
16516;SDS011;8371;52.272;9.746;2023-05-07T14:30:26;5.80;;;5.37;;
16516;SDS011;8371;52.272;9.746;2023-05-07T14:32:52;5.00;;;4.70;;
16516;SDS011;8371;52.272;9.746;2023-05-07T14:35:18;4.17;;;3.97;;
16516;SDS011;8371;52.272;9.746;2023-05-07T14:37:44;4.00;;;3.90;;
16516;SDS011;8371;52.272;9.746;2023-05-07T14:40:10;5.17;;;5.07;;
16516;SDS011;8371;52.272;9.746;2023-05-07T14:42:36;4.53;;;4.43;;
16516;SDS011;8371;52.272;9.746;2023-05-07T14:45:02;5.23;;;5.03;;
16516;SDS011;8371;52.272;9.746;2023-05-07T14:47:28;4.23;;;4.13;;
16516;SDS011;8371;52.272;9.746;2023-05-07T14:49:54;4.03;;;3.93;;
16516;SDS011;8371;52.272;9.746;2023-05-07T14:52:22;5.10;;;3.83;;
16516;SDS011;8371;52.272;9.746;2023-05-07T14:54:48;4.63;;;4.47;;
16516;SDS011;8371;52.272;9.746;2023-05-07T14:57:14;4.77;;;4.57;;
16516;SDS011;8371;52.272;9.746;2023-05-07T14:59:44;6.53;;;4.87;;
16516;SDS011;8371;52.272;9.746;2023-05-07T15:02:17;5.63;;;5.43;;
16516;SDS011;8371;52.272;9.746;2023-05-07T15:04:43;5.50;;;5.30;;
16516;SDS011;8371;52.272;9.746;2023-05-07T15:07:12;5.37;;;5.17;;
16516;SDS011;8371;52.272;9.746;2023-05-07T15:09:44;5.40;;;5.20;;
16516;SDS011;8371;52.272;9.746;2023-05-07T15:12:08;4.93;;;4.73;;
16516;SDS011;8371;52.272;9.746;2023-05-07T15:14:34;5.03;;;4.87;;
16516;SDS011;8371;52.272;9.746;2023-05-07T15:17:00;5.30;;;5.10;;
16516;SDS011;8371;52.272;9.746;2023-05-07T15:19:26;5.07;;;4.87;;